Barro Duro, Brazil
Current Conditions -  °F | °C
As of 7:00 PM on Saturday 25 Oct 2014 (Local Time) from SBTE Reporting Station
Clear Clear  
Wind Chill: 93°   Ceiling: Unl
Heat Index: 93°   Visibility: 6mi
Dew Point: 59°   Wind: 0mph
Humidity: 32%   Direction: NA
Pressure: 29.74"   Gusts: NA
Location:  5.82°S, 42.51°W
Report Text: SBTE 252200Z 00000KT CAVOK 34/15 Q1007
Loading
Personal Weather Stations






























Interactive Weather Map
Tropical Storm Tracking
New forecast layout! Learn more

10-Day Weather Forecast

Advertisements
Track Severe Weather on mobile